SHU2478 UHBB-UHBB

Flight info

Callsign SHU2478
Flight time 0h 26m
Altitude 15000
Route AMERA2Y AMERA AMERA3X
Aircraft DH8D/M-SDE2E3FGRY/H

Departure

Time 2026-04-21 13:08
Airport Ignatyevo Airport (UHBB)

Arrival

Time 2026-04-21 13:34
Airport Ignatyevo Airport (UHBB)
Time Latitude Longitude Altitude Speed Heading
2026-04-21 12:46 50.41805 127.41055 649 ft 0 kts 78°
2026-04-21 12:57 50.41805 127.41058 649 ft 0 kts 78°
2026-04-21 12:57 50.41807 127.41067 649 ft 1 kts 62°
2026-04-21 12:57 50.41813 127.41075 649 ft 0 kts 31°
2026-04-21 12:57 50.41816 127.41077 649 ft 0 kts 19°
2026-04-21 12:58 50.41839 127.41080 649 ft 5 kts 358°
2026-04-21 12:58 50.41879 127.41071 649 ft 6 kts 348°
2026-04-21 12:58 50.41928 127.41054 649 ft 7 kts 347°
2026-04-21 12:58 50.41981 127.41036 649 ft 8 kts 347°
2026-04-21 12:59 50.42030 127.41020 649 ft 5 kts 347°
2026-04-21 12:59 50.42066 127.41008 649 ft 6 kts 348°
2026-04-21 12:59 50.42114 127.40992 649 ft 8 kts 349°
2026-04-21 12:59 50.42171 127.40981 649 ft 9 kts
2026-04-21 13:00 50.42204 127.41084 649 ft 12 kts 77°
2026-04-21 13:00 50.42223 127.41225 649 ft 11 kts 77°
2026-04-21 13:00 50.42238 127.41334 649 ft 5 kts 78°
2026-04-21 13:00 50.42245 127.41390 649 ft 5 kts 78°
2026-04-21 13:01 50.42253 127.41451 649 ft 5 kts 79°
2026-04-21 13:01 50.42260 127.41512 649 ft 5 kts 78°
2026-04-21 13:01 50.42263 127.41530 649 ft 0 kts 78°
2026-04-21 13:02 50.42265 127.41544 649 ft 1 kts 78°
2026-04-21 13:03 50.42268 127.41567 649 ft 2 kts 78°
2026-04-21 13:03 50.42274 127.41615 649 ft 6 kts 78°
2026-04-21 13:03 50.42251 127.41685 649 ft 9 kts 152°
2026-04-21 13:03 50.42182 127.41716 649 ft 11 kts 168°
2026-04-21 13:04 50.42097 127.41741 649 ft 13 kts 169°
2026-04-21 13:04 50.41999 127.41773 649 ft 15 kts 168°
2026-04-21 13:04 50.41890 127.41808 649 ft 17 kts 168°
2026-04-21 13:04 50.41766 127.41849 649 ft 18 kts 168°
2026-04-21 13:05 50.41637 127.41891 649 ft 18 kts 168°
2026-04-21 13:05 50.41521 127.41928 649 ft 11 kts 168°
2026-04-21 13:05 50.41475 127.41943 649 ft 6 kts 170°
2026-04-21 13:05 50.41429 127.41914 649 ft 7 kts 210°
2026-04-21 13:06 50.41378 127.41912 649 ft 7 kts 171°
2026-04-21 13:06 50.41367 127.41969 649 ft 6 kts 55°
2026-04-21 13:06 50.41400 127.41968 649 ft 0 kts 348°
2026-04-21 13:07 50.41470 127.41946 649 ft 47 kts 349°
2026-04-21 13:07 50.42103 127.41747 649 ft 131 kts 348°
2026-04-21 13:07 50.43147 127.41444 795 ft 168 kts 350°
2026-04-21 13:08 50.44363 127.41142 1398 ft 178 kts 350°
2026-04-21 13:08 50.45426 127.40852 2733 ft 150 kts 348°
2026-04-21 13:08 50.46417 127.40698 3445 ft 153 kts 10°
2026-04-21 13:08 50.47485 127.41656 3029 ft 192 kts 24°
2026-04-21 13:09 50.48671 127.41724 3620 ft 176 kts 345°
2026-04-21 13:09 50.49902 127.41375 3776 ft 187 kts
2026-04-21 13:09 50.51191 127.41876 3921 ft 197 kts 11°
2026-04-21 13:09 50.52611 127.42010 3973 ft 212 kts 354°
2026-04-21 13:10 50.54100 127.41569 3991 ft 224 kts 348°
2026-04-21 13:10 50.55659 127.41016 3993 ft 233 kts 348°
2026-04-21 13:10 50.57249 127.40451 3989 ft 234 kts 348°
2026-04-21 13:10 50.58783 127.39963 3956 ft 218 kts 355°
2026-04-21 13:11 50.60249 127.39935 3965 ft 205 kts 358°
2026-04-21 13:11 50.61616 127.39594 3965 ft 197 kts 348°
2026-04-21 13:11 50.62939 127.39567 3959 ft 190 kts 15°
2026-04-21 13:11 50.63992 127.40755 3959 ft 188 kts 43°
2026-04-21 13:12 50.64858 127.42257 3961 ft 183 kts 41°
2026-04-21 13:12 50.65713 127.43695 3962 ft 176 kts 41°
2026-04-21 13:12 50.66539 127.45092 3960 ft 171 kts 41°
2026-04-21 13:12 50.67332 127.46442 3953 ft 166 kts 41°
2026-04-21 13:13 50.68109 127.47774 3957 ft 159 kts 41°
2026-04-21 13:13 50.68787 127.48966 4253 ft 142 kts 41°
2026-04-21 13:13 50.69420 127.50108 4427 ft 136 kts 41°
2026-04-21 13:13 50.70036 127.51233 4544 ft 133 kts 41°
2026-04-21 13:14 50.70633 127.52343 4635 ft 132 kts 41°
2026-04-21 13:14 50.71241 127.53393 4701 ft 128 kts 28°
2026-04-21 13:14 50.72047 127.53959 4701 ft 127 kts 13°
2026-04-21 13:14 50.72883 127.54366 4849 ft 133 kts 14°
2026-04-21 13:15 50.73795 127.54961 5182 ft 152 kts 32°
2026-04-21 13:15 50.74231 127.56554 5558 ft 182 kts 86°
2026-04-21 13:15 50.73883 127.58556 6056 ft 197 kts 102°
2026-04-21 13:15 50.73404 127.60606 6631 ft 202 kts 102°
2026-04-21 13:16 50.72921 127.62683 7225 ft 204 kts 102°
2026-04-21 13:16 50.72440 127.64756 7802 ft 205 kts 102°
2026-04-21 13:16 50.71950 127.66874 8387 ft 207 kts 102°
2026-04-21 13:16 50.71459 127.69005 8960 ft 209 kts 102°
2026-04-21 13:17 50.70961 127.71169 9544 ft 210 kts 102°
2026-04-21 13:17 50.70464 127.73335 10108 ft 212 kts 102°
2026-04-21 13:17 50.69952 127.75580 10453 ft 228 kts 102°
2026-04-21 13:17 50.69395 127.78058 10586 ft 252 kts 103°
2026-04-21 13:18 50.68791 127.80731 10621 ft 273 kts 104°
2026-04-21 13:18 50.68126 127.83650 10631 ft 287 kts 104°
2026-04-21 13:18 50.67404 127.86635 10645 ft 300 kts 110°
2026-04-21 13:18 50.66046 127.89226 10631 ft 316 kts 142°
2026-04-21 13:19 50.64037 127.90711 10657 ft 324 kts 159°
2026-04-21 13:19 50.61909 127.91908 10635 ft 331 kts 160°
2026-04-21 13:19 50.59720 127.93127 10630 ft 337 kts 160°
2026-04-21 13:19 50.57500 127.94373 10618 ft 331 kts 160°
2026-04-21 13:20 50.55406 127.95561 10600 ft 316 kts 160°
2026-04-21 13:20 50.53369 127.96722 10592 ft 302 kts 160°
2026-04-21 13:20 50.51430 127.97829 10600 ft 296 kts 160°
2026-04-21 13:20 50.49496 127.98934 10595 ft 293 kts 160°
2026-04-21 13:21 50.47602 128.00017 10601 ft 289 kts 159°
2026-04-21 13:21 50.45734 128.01088 10606 ft 287 kts 160°
2026-04-21 13:21 50.43870 128.02156 10595 ft 285 kts 160°
2026-04-21 13:21 50.42019 128.03218 10593 ft 284 kts 160°
2026-04-21 13:22 50.40148 128.04291 10592 ft 284 kts 160°
2026-04-21 13:22 50.38311 128.05344 10596 ft 282 kts 160°
2026-04-21 13:22 50.36493 128.06384 10598 ft 278 kts 159°
2026-04-21 13:22 50.34663 128.07433 10597 ft 278 kts 159°
2026-04-21 13:23 50.32856 128.08467 10584 ft 277 kts 160°
2026-04-21 13:23 50.31046 128.09503 10585 ft 276 kts 160°
2026-04-21 13:23 50.29239 128.10484 10594 ft 272 kts 166°
2026-04-21 13:23 50.27436 128.10448 10590 ft 257 kts 204°
2026-04-21 13:24 50.26103 128.08865 10594 ft 231 kts 245°
2026-04-21 13:24 50.25744 128.06635 10616 ft 205 kts 278°
2026-04-21 13:24 50.25856 128.04428 10566 ft 206 kts 284°
2026-04-21 13:24 50.26082 128.02170 10354 ft 213 kts 288°
2026-04-21 13:25 50.26401 127.99894 10183 ft 216 kts 290°
2026-04-21 13:25 50.26774 127.97637 10022 ft 215 kts 292°
2026-04-21 13:25 50.27191 127.95377 9768 ft 218 kts 293°
2026-04-21 13:25 50.27644 127.93107 9519 ft 221 kts 294°
2026-04-21 13:26 50.28125 127.90816 9286 ft 223 kts 295°
2026-04-21 13:26 50.28620 127.88546 9094 ft 224 kts 295°
2026-04-21 13:26 50.29134 127.86240 8901 ft 223 kts 295°
2026-04-21 13:26 50.29654 127.83948 8707 ft 224 kts 295°
2026-04-21 13:27 50.30040 127.81587 8497 ft 230 kts 281°
2026-04-21 13:27 50.29998 127.79100 8245 ft 232 kts 273°
2026-04-21 13:27 50.29889 127.76580 8050 ft 233 kts 273°
2026-04-21 13:27 50.29781 127.74034 7867 ft 231 kts 273°
2026-04-21 13:28 50.29676 127.71571 7643 ft 228 kts 274°
2026-04-21 13:28 50.29578 127.69123 7253 ft 228 kts 274°
2026-04-21 13:28 50.29480 127.66634 6817 ft 227 kts 274°
2026-04-21 13:28 50.29386 127.64199 6396 ft 226 kts 274°
2026-04-21 13:29 50.29291 127.61768 5954 ft 223 kts 274°
2026-04-21 13:29 50.29201 127.59377 5510 ft 220 kts 274°
2026-04-21 13:29 50.29084 127.57005 5064 ft 221 kts 270°
2026-04-21 13:29 50.28873 127.54635 4626 ft 221 kts 269°
2026-04-21 13:30 50.28648 127.52299 4186 ft 214 kts 269°
2026-04-21 13:30 50.28429 127.50050 3859 ft 205 kts 268°
2026-04-21 13:30 50.28416 127.47932 3462 ft 190 kts 292°
2026-04-21 13:30 50.29118 127.46360 3070 ft 170 kts 333°
2026-04-21 13:31 50.30162 127.45783 2734 ft 154 kts 347°
2026-04-21 13:31 50.31166 127.45396 2354 ft 144 kts 347°
2026-04-21 13:31 50.32117 127.44961 1765 ft 151 kts 342°
2026-04-21 13:31 50.33137 127.44430 1388 ft 155 kts 349°
2026-04-21 13:32 50.34129 127.44213 1640 ft 135 kts 354°
2026-04-21 13:32 50.35078 127.43983 1492 ft 142 kts 351°
2026-04-21 13:32 50.36046 127.43716 1430 ft 141 kts 350°
2026-04-21 13:32 50.37018 127.43360 1273 ft 148 kts 346°
2026-04-21 13:33 50.38034 127.43009 1155 ft 152 kts 350°
2026-04-21 13:33 50.39098 127.42701 995 ft 158 kts 349°
2026-04-21 13:33 50.40205 127.42361 856 ft 163 kts 349°
2026-04-21 13:33 50.41332 127.41989 695 ft 169 kts 348°
2026-04-21 13:34 50.42401 127.41627 649 ft 128 kts 349°
2026-04-21 13:34 50.43066 127.41420 649 ft 57 kts 351°
2026-04-21 13:34 50.43391 127.41309 649 ft 44 kts 349°
2026-04-21 13:34 50.43508 127.41282 649 ft 6 kts 51°
2026-04-21 13:35 50.43401 127.41341 649 ft 30 kts 173°
2026-04-21 13:35 50.43150 127.41391 649 ft 27 kts 169°
2026-04-21 13:35 50.43003 127.41445 649 ft 15 kts 167°
2026-04-21 13:35 50.42897 127.41457 649 ft 18 kts 200°
2026-04-21 13:36 50.42808 127.41343 649 ft 8 kts 220°
2026-04-21 13:36 50.42804 127.41338 649 ft 0 kts 220°
2026-04-21 13:38 50.42790 127.41321 649 ft 12 kts 220°
2026-04-21 13:38 50.42753 127.41273 649 ft 0 kts 218°
2026-04-21 13:38 50.42752 127.41273 649 ft 0 kts 218°
2026-04-21 13:38 50.42736 127.41253 649 ft 4 kts 218°
2026-04-21 13:39 50.42709 127.41221 649 ft 5 kts 217°
2026-04-21 13:39 50.42651 127.41155 649 ft 13 kts 216°
2026-04-21 13:39 50.42580 127.41073 649 ft 12 kts 217°
2026-04-21 13:39 50.42530 127.40985 649 ft 11 kts 247°
2026-04-21 13:40 50.42488 127.40949 649 ft 8 kts 166°
2026-04-21 13:40 50.42422 127.40976 649 ft 19 kts 167°
2026-04-21 13:40 50.42297 127.41019 649 ft 19 kts 168°
2026-04-21 13:40 50.42252 127.41034 649 ft 5 kts 171°
2026-04-21 13:41 50.42214 127.41012 649 ft 6 kts 229°
2026-04-21 13:41 50.42198 127.40953 649 ft 6 kts 258°
2026-04-21 13:41 50.42191 127.40895 649 ft 3 kts 259°
2026-04-21 13:41 50.42190 127.40893 649 ft 0 kts 259°